createdAt,value
2023-01-12T00:02:15.424Z,6.06
2023-01-12T00:04:43.691Z,6.06
2023-01-12T00:07:13.737Z,6.06
2023-01-12T00:09:41.762Z,6.05
2023-01-12T00:12:12.552Z,6.02
2023-01-12T00:14:41.289Z,5.98
2023-01-12T00:17:10.175Z,5.96
2023-01-12T00:19:39.900Z,5.93
2023-01-12T00:22:12.735Z,5.89
2023-01-12T00:24:45.625Z,5.85
2023-01-12T00:27:16.251Z,5.83
2023-01-12T00:29:44.434Z,5.80
2023-01-12T00:32:22.421Z,5.78
2023-01-12T00:34:50.231Z,5.73
2023-01-12T00:37:17.964Z,5.72
2023-01-12T00:39:56.799Z,5.71
2023-01-12T00:42:47.551Z,5.70
2023-01-12T00:45:24.874Z,5.67
2023-01-12T00:47:54.595Z,5.66
2023-01-12T00:50:23.323Z,5.64
2023-01-12T00:52:51.082Z,5.64
2023-01-12T00:55:18.729Z,5.63
2023-01-12T00:57:46.770Z,5.61
2023-01-12T01:00:15.089Z,5.61
2023-01-12T01:02:42.813Z,5.64
2023-01-12T01:05:10.770Z,5.65
2023-01-12T01:07:39.295Z,5.67
2023-01-12T01:10:07.721Z,5.65
2023-01-12T01:12:35.420Z,5.66
2023-01-12T01:15:03.367Z,5.65
2023-01-12T01:17:31.103Z,5.64
2023-01-12T01:19:58.888Z,5.65
2023-01-12T01:22:26.640Z,5.63
2023-01-12T01:24:54.544Z,5.60
2023-01-12T01:27:22.503Z,5.58
2023-01-12T01:29:50.173Z,5.55
2023-01-12T01:32:17.865Z,5.57
2023-01-12T01:34:47.482Z,5.57
2023-01-12T01:37:15.188Z,5.58
2023-01-12T01:39:42.998Z,5.58
2023-01-12T01:42:29.018Z,5.60
2023-01-12T01:45:00.010Z,5.61
2023-01-12T01:47:37.551Z,5.60
2023-01-12T01:50:13.495Z,5.58
2023-01-12T01:52:46.336Z,5.55
2023-01-12T01:55:24.594Z,5.58
2023-01-12T01:57:54.839Z,5.58
2023-01-12T02:00:24.307Z,5.59
2023-01-12T02:02:53.618Z,5.63
2023-01-12T02:05:26.731Z,5.66
2023-01-12T02:07:54.960Z,5.67
2023-01-12T02:10:23.229Z,5.70
2023-01-12T02:13:09.977Z,5.71
2023-01-12T02:16:22.873Z,5.72
2023-01-12T02:19:15.970Z,5.71
2023-01-12T02:22:29.905Z,5.71
2023-01-12T02:25:38.296Z,5.69
2023-01-12T02:28:20.991Z,5.69
2023-01-12T02:31:07.386Z,5.68
2023-01-12T02:33:50.256Z,5.67
2023-01-12T02:36:43.398Z,5.65
2023-01-12T02:39:27.315Z,5.65
2023-01-12T02:42:24.691Z,5.65
2023-01-12T02:45:27.254Z,5.66
2023-01-12T02:48:13.753Z,5.64
2023-01-12T02:50:50.374Z,5.63
2023-01-12T02:53:25.467Z,5.64
2023-01-12T02:55:54.251Z,5.65
2023-01-12T02:58:25.463Z,5.66
2023-01-12T03:00:57.465Z,5.67
2023-01-12T03:03:26.552Z,5.71
2023-01-12T03:06:00.884Z,5.73
2023-01-12T03:08:31.475Z,5.73
2023-01-12T03:11:07.829Z,5.73
2023-01-12T03:13:38.320Z,5.74
2023-01-12T03:16:07.879Z,5.73
2023-01-12T03:18:39.416Z,5.72
2023-01-12T03:21:13.844Z,5.75
2023-01-12T03:23:48.364Z,5.78
2023-01-12T03:26:20.531Z,5.80
2023-01-12T03:28:53.905Z,5.81
2023-01-12T03:31:23.147Z,5.83
2023-01-12T03:33:51.523Z,5.84
2023-01-12T03:36:24.995Z,5.85
2023-01-12T03:39:25.730Z,5.85
2023-01-12T03:41:57.767Z,5.86
2023-01-12T03:44:50.935Z,5.84
2023-01-12T03:47:38.028Z,5.86
2023-01-12T03:50:29.808Z,5.86
2023-01-12T03:52:58.004Z,5.84
2023-01-12T03:55:31.040Z,5.86
2023-01-12T03:57:59.093Z,5.85
2023-01-12T04:00:28.788Z,5.85
2023-01-12T04:03:25.938Z,5.85
2023-01-12T04:05:53.585Z,5.83
2023-01-12T04:08:21.459Z,5.80
2023-01-12T04:10:49.323Z,5.79
2023-01-12T04:13:16.955Z,5.75
2023-01-12T04:15:44.684Z,5.74
2023-01-12T04:18:13.578Z,5.72
2023-01-12T04:20:41.776Z,5.69
2023-01-12T04:23:09.540Z,5.70
2023-01-12T04:25:37.855Z,5.68
2023-01-12T04:28:05.925Z,5.67
2023-01-12T04:30:34.902Z,5.68
2023-01-12T04:33:09.271Z,5.67
2023-01-12T04:35:37.024Z,5.69
2023-01-12T04:38:09.462Z,5.69
2023-01-12T04:40:37.126Z,5.71
2023-01-12T04:43:09.614Z,5.72
2023-01-12T04:45:41.053Z,5.72
2023-01-12T04:48:13.888Z,5.75
2023-01-12T04:50:42.603Z,5.76
2023-01-12T04:53:12.233Z,5.78
2023-01-12T04:55:42.533Z,5.80
2023-01-12T04:58:10.921Z,5.81
2023-01-12T05:00:38.639Z,5.84
2023-01-12T05:03:06.324Z,5.85
2023-01-12T05:05:34.849Z,5.85
2023-01-12T05:08:22.688Z,5.86
2023-01-12T05:10:55.531Z,5.88
2023-01-12T05:13:24.840Z,5.91
2023-01-12T05:15:52.531Z,5.92
2023-01-12T05:18:20.591Z,5.91
2023-01-12T05:20:48.447Z,5.93
2023-01-12T05:23:16.167Z,5.94
2023-01-12T05:25:44.011Z,5.96
2023-01-12T05:28:11.795Z,5.96
2023-01-12T05:30:39.594Z,5.97
2023-01-12T05:33:07.341Z,5.98
2023-01-12T05:35:35.100Z,6.00
2023-01-12T05:38:02.781Z,6.02
2023-01-12T05:40:30.582Z,6.02
2023-01-12T05:43:17.124Z,6.00
2023-01-12T05:45:44.913Z,5.99
2023-01-12T05:48:13.058Z,6.01
2023-01-12T05:50:40.765Z,6.00
2023-01-12T05:53:08.848Z,6.00
2023-01-12T05:55:38.797Z,6.02
2023-01-12T05:58:06.485Z,6.04
2023-01-12T06:00:34.278Z,6.02
2023-01-12T06:03:04.001Z,6.02
2023-01-12T06:05:31.696Z,6.00
2023-01-12T06:08:00.230Z,6.00
2023-01-12T06:10:28.018Z,6.00
2023-01-12T06:13:14.626Z,6.04
2023-01-12T06:15:42.386Z,6.02
2023-01-12T06:18:10.269Z,6.03
2023-01-12T06:20:37.915Z,6.04
2023-01-12T06:23:08.944Z,6.05
2023-01-12T06:25:36.556Z,6.07
2023-01-12T06:28:06.746Z,6.06
2023-01-12T06:30:34.532Z,6.09
2023-01-12T06:33:03.471Z,6.10
2023-01-12T06:35:31.090Z,6.11
2023-01-12T06:37:59.140Z,6.13
2023-01-12T06:40:26.848Z,6.12
2023-01-12T06:42:54.504Z,6.15
2023-01-12T06:45:22.149Z,6.16
2023-01-12T06:47:50.661Z,6.18
2023-01-12T06:50:18.547Z,6.20
2023-01-12T06:52:46.263Z,6.20
2023-01-12T06:55:14.115Z,6.19
2023-01-12T06:57:42.000Z,6.21
2023-01-12T07:00:10.606Z,6.33
2023-01-12T07:02:38.340Z,6.54
2023-01-12T07:05:06.816Z,6.62
2023-01-12T07:07:34.592Z,6.78
2023-01-12T07:10:02.323Z,6.81
2023-01-12T07:12:30.138Z,7.12
2023-01-12T07:15:00.034Z,7.36
2023-01-12T07:17:27.701Z,7.36
2023-01-12T07:19:55.340Z,7.39
2023-01-12T07:22:23.076Z,7.38
2023-01-12T07:24:50.750Z,7.34
2023-01-12T07:27:18.454Z,7.32
2023-01-12T07:29:47.715Z,7.31
2023-01-12T07:32:15.473Z,7.25
2023-01-12T07:34:43.258Z,7.20
2023-01-12T07:37:10.944Z,7.20
2023-01-12T07:39:40.184Z,7.11
2023-01-12T07:42:25.796Z,7.12
2023-01-12T07:44:53.822Z,7.11
2023-01-12T07:47:21.890Z,7.13
2023-01-12T07:49:49.657Z,7.07
2023-01-12T07:52:17.607Z,7.10
2023-01-12T07:54:45.325Z,7.08
2023-01-12T07:57:13.461Z,7.07
2023-01-12T07:59:41.269Z,7.05
2023-01-12T08:02:17.625Z,7.06
2023-01-12T08:04:46.183Z,7.05
2023-01-12T08:07:14.988Z,7.07
2023-01-12T08:09:42.780Z,7.05
2023-01-12T08:12:10.596Z,7.06
2023-01-12T08:14:40.097Z,7.08
2023-01-12T08:17:12.431Z,7.07
2023-01-12T08:19:45.269Z,7.07
2023-01-12T08:22:22.330Z,7.12
2023-01-12T08:24:55.717Z,7.11
2023-01-12T08:27:26.672Z,7.10
2023-01-12T08:30:02.719Z,7.09
2023-01-12T08:32:31.155Z,7.15
2023-01-12T08:35:02.310Z,7.11
2023-01-12T08:37:32.435Z,7.08
2023-01-12T08:40:00.384Z,7.14
2023-01-12T08:42:31.633Z,7.09
2023-01-12T08:44:59.510Z,7.09
2023-01-12T08:47:29.431Z,7.07
2023-01-12T08:49:58.589Z,7.09
2023-01-12T08:52:26.784Z,7.09
2023-01-12T08:54:54.549Z,7.09
2023-01-12T08:57:22.471Z,7.14
2023-01-12T08:59:50.429Z,7.17
2023-01-12T09:02:18.427Z,7.19
2023-01-12T09:04:46.362Z,7.18
2023-01-12T09:07:15.297Z,7.18
2023-01-12T09:09:43.069Z,7.19
2023-01-12T09:12:10.913Z,7.21
2023-01-12T09:14:39.853Z,7.24
2023-01-12T09:17:08.591Z,7.26
2023-01-12T09:19:36.327Z,7.29
2023-01-12T09:22:04.013Z,7.35
2023-01-12T09:24:31.868Z,7.36
2023-01-12T09:26:59.600Z,7.38
2023-01-12T09:29:27.391Z,7.41
2023-01-12T09:31:55.185Z,7.43
2023-01-12T09:34:22.986Z,7.47
2023-01-12T09:36:53.414Z,7.49
2023-01-12T09:39:28.738Z,7.47
2023-01-12T09:42:15.967Z,7.48
2023-01-12T09:45:05.942Z,7.51
2023-01-12T09:47:50.419Z,7.54
2023-01-12T09:50:26.398Z,7.56
2023-01-12T09:52:57.671Z,7.59
2023-01-12T09:55:28.398Z,7.66
2023-01-12T09:58:30.482Z,7.71
2023-01-12T10:01:00.505Z,7.72
2023-01-12T10:03:39.484Z,7.70
2023-01-12T10:06:09.966Z,7.74
2023-01-12T10:08:42.661Z,7.74
2023-01-12T10:11:23.458Z,7.77
2023-01-12T10:14:15.957Z,7.82
2023-01-12T10:17:05.464Z,7.81
2023-01-12T10:19:50.614Z,7.83
2023-01-12T10:22:38.712Z,7.85
2023-01-12T10:25:07.626Z,7.87
2023-01-12T10:27:42.030Z,7.87
2023-01-12T10:30:18.539Z,7.88
2023-01-12T10:32:46.911Z,7.88
2023-01-12T10:35:21.268Z,7.89
2023-01-12T10:37:52.920Z,7.91
2023-01-12T10:40:31.538Z,7.84
2023-01-12T10:43:20.749Z,7.82
2023-01-12T10:46:23.529Z,7.81
2023-01-12T10:48:56.138Z,7.83
2023-01-12T10:51:34.690Z,7.82
2023-01-12T10:54:12.689Z,7.81
2023-01-12T10:56:43.869Z,7.83
2023-01-12T10:59:14.567Z,7.82
2023-01-12T11:01:53.444Z,7.83
2023-01-12T11:04:24.490Z,7.84
2023-01-12T11:07:04.935Z,7.84
2023-01-12T11:09:33.078Z,7.86
2023-01-12T11:12:03.892Z,7.89
2023-01-12T11:14:35.179Z,7.88
2023-01-12T11:17:18.017Z,7.89
2023-01-12T11:19:49.007Z,7.88
2023-01-12T11:22:25.382Z,7.91
2023-01-12T11:25:07.863Z,7.91
2023-01-12T11:27:58.608Z,7.93
2023-01-12T11:30:42.352Z,7.96
2023-01-12T11:33:48.296Z,7.94
2023-01-12T11:36:20.580Z,7.99
2023-01-12T11:38:55.821Z,8.00
2023-01-12T11:41:27.567Z,8.05
2023-01-12T11:44:13.109Z,8.06
2023-01-12T11:46:44.811Z,8.06
2023-01-12T11:49:29.232Z,8.12
2023-01-12T11:52:00.013Z,8.14
2023-01-12T11:54:29.878Z,8.13
2023-01-12T11:57:09.571Z,8.15
2023-01-12T11:59:37.190Z,8.15
2023-01-12T12:02:14.209Z,8.19
2023-01-12T12:04:50.655Z,8.21
2023-01-12T12:07:27.426Z,8.25
2023-01-12T12:10:16.478Z,8.26
2023-01-12T12:13:34.890Z,8.28
2023-01-12T12:16:17.794Z,8.30
2023-01-12T12:18:57.754Z,8.34
2023-01-12T12:21:31.111Z,8.39
2023-01-12T12:24:24.680Z,8.41
2023-01-12T12:27:03.766Z,8.47
2023-01-12T12:29:51.579Z,8.49
2023-01-12T12:32:46.939Z,8.53
2023-01-12T12:35:31.267Z,8.56
2023-01-12T12:38:21.893Z,8.61
2023-01-12T12:41:32.562Z,8.63
2023-01-12T12:44:33.909Z,8.65
2023-01-12T12:47:30.684Z,8.71
2023-01-12T12:50:01.276Z,8.73
2023-01-12T12:52:37.215Z,8.74
2023-01-12T12:55:06.177Z,8.77
2023-01-12T12:57:54.172Z,8.80
2023-01-12T13:00:43.639Z,8.83
2023-01-12T13:03:11.599Z,8.87
2023-01-12T13:05:42.525Z,8.88
2023-01-12T13:08:21.228Z,8.91
2023-01-12T13:10:56.107Z,8.91
2023-01-12T13:13:28.956Z,8.94
2023-01-12T13:16:21.559Z,8.96
2023-01-12T13:18:52.165Z,8.97
2023-01-12T13:21:30.404Z,9.00
2023-01-12T13:24:19.178Z,9.01
2023-01-12T13:26:48.113Z,9.03
2023-01-12T13:29:24.962Z,9.04
2023-01-12T13:32:11.756Z,9.07
2023-01-12T13:34:39.490Z,9.09
2023-01-12T13:37:35.314Z,9.09
2023-01-12T13:40:23.130Z,9.07
2023-01-12T13:43:10.469Z,9.03
2023-01-12T13:45:38.578Z,9.03
2023-01-12T13:48:08.577Z,9.05
2023-01-12T13:50:37.450Z,9.07
2023-01-12T13:53:06.112Z,9.07
2023-01-12T13:55:36.628Z,9.08
2023-01-12T13:58:08.067Z,9.08
2023-01-12T14:00:36.329Z,9.13
2023-01-12T14:03:05.899Z,9.12
2023-01-12T14:05:33.732Z,9.13
2023-01-12T14:08:27.790Z,9.13
2023-01-12T14:11:16.604Z,9.13
2023-01-12T14:13:54.091Z,9.07
2023-01-12T14:16:40.600Z,9.08
2023-01-12T14:19:28.808Z,9.08
2023-01-12T14:21:59.247Z,9.02
2023-01-12T14:24:27.469Z,9.01
2023-01-12T14:26:55.569Z,9.03
2023-01-12T14:29:23.435Z,8.97
2023-01-12T14:31:54.579Z,8.93
2023-01-12T14:34:27.570Z,8.91
2023-01-12T14:36:56.888Z,8.89
2023-01-12T14:39:29.072Z,8.88
2023-01-12T14:42:17.148Z,8.80
2023-01-12T14:45:13.166Z,8.80
2023-01-12T14:47:41.335Z,8.74
2023-01-12T14:50:20.349Z,8.73
2023-01-12T14:52:49.407Z,8.72
2023-01-12T14:55:27.142Z,8.72
2023-01-12T14:58:01.827Z,8.69
2023-01-12T15:00:33.137Z,8.67
2023-01-12T15:03:03.765Z,8.64
2023-01-12T15:05:34.395Z,8.59
2023-01-12T15:08:09.537Z,8.59
2023-01-12T15:10:40.857Z,8.58
2023-01-12T15:13:33.189Z,8.55
2023-01-12T15:16:20.581Z,8.52
2023-01-12T15:19:06.910Z,8.49
2023-01-12T15:21:54.572Z,8.50
2023-01-12T15:24:40.847Z,8.50
2023-01-12T15:27:09.802Z,8.43
2023-01-12T15:29:37.818Z,8.41
2023-01-12T15:32:06.842Z,8.39
2023-01-12T15:34:35.132Z,8.38
2023-01-12T15:37:02.923Z,8.37
2023-01-12T15:39:30.713Z,8.34
2023-01-12T15:42:17.321Z,8.35
2023-01-12T15:44:50.345Z,8.31
2023-01-12T15:47:20.131Z,8.29
2023-01-12T15:49:49.963Z,8.28
2023-01-12T15:52:22.844Z,8.24
2023-01-12T15:54:51.114Z,8.23
2023-01-12T15:57:19.307Z,8.21
2023-01-12T15:59:47.075Z,8.19
2023-01-12T16:02:20.791Z,8.18
2023-01-12T16:04:48.610Z,8.16
2023-01-12T16:07:16.431Z,8.17
2023-01-12T16:09:46.745Z,8.16
2023-01-12T16:12:16.104Z,8.14
2023-01-12T16:14:43.897Z,8.12
2023-01-12T16:17:11.724Z,8.13
2023-01-12T16:19:42.301Z,8.11
2023-01-12T16:22:22.158Z,8.13
2023-01-12T16:24:54.196Z,8.12
2023-01-12T16:27:24.032Z,8.12
2023-01-12T16:29:51.796Z,8.11
2023-01-12T16:32:24.200Z,8.13
2023-01-12T16:34:51.921Z,8.11
2023-01-12T16:37:24.074Z,8.12
2023-01-12T16:39:51.758Z,8.13
2023-01-12T16:42:19.449Z,8.14
2023-01-12T16:44:50.691Z,8.12
2023-01-12T16:47:21.280Z,8.10
2023-01-12T16:49:51.224Z,8.10
2023-01-12T16:52:21.602Z,8.09
2023-01-12T16:54:49.415Z,8.10
2023-01-12T16:57:18.743Z,8.08
2023-01-12T16:59:47.266Z,8.07
2023-01-12T17:02:17.860Z,8.06
2023-01-12T17:04:46.892Z,8.04
2023-01-12T17:07:14.855Z,8.03
2023-01-12T17:09:42.831Z,8.00
2023-01-12T17:12:11.405Z,8.00
2023-01-12T17:14:39.273Z,7.96
2023-01-12T17:17:09.638Z,7.98
2023-01-12T17:19:39.656Z,7.98
2023-01-12T17:22:08.951Z,7.98
2023-01-12T17:24:41.015Z,7.96
2023-01-12T17:27:11.092Z,7.97
2023-01-12T17:29:38.915Z,7.97
2023-01-12T17:32:08.232Z,7.95
2023-01-12T17:34:39.233Z,7.95
2023-01-12T17:37:10.712Z,7.95
2023-01-12T17:39:41.010Z,7.93
2023-01-12T17:42:27.590Z,7.95
2023-01-12T17:44:55.419Z,7.93
2023-01-12T17:47:23.557Z,7.92
2023-01-12T17:49:51.400Z,7.92
2023-01-12T17:52:19.408Z,7.92
2023-01-12T17:54:47.281Z,7.91
2023-01-12T17:57:15.438Z,7.92
2023-01-12T17:59:43.279Z,7.91
2023-01-12T18:02:12.763Z,7.91
2023-01-12T18:04:40.641Z,7.90
2023-01-12T18:07:08.330Z,7.92
2023-01-12T18:09:37.887Z,7.91
2023-01-12T18:12:06.341Z,7.90
2023-01-12T18:14:34.444Z,7.92
2023-01-12T18:17:02.233Z,7.91
2023-01-12T18:19:31.082Z,7.94
2023-01-12T18:21:58.731Z,7.92
2023-01-12T18:24:26.422Z,7.92
2023-01-12T18:26:54.207Z,7.91
2023-01-12T18:29:21.911Z,7.92
2023-01-12T18:31:49.730Z,7.90
2023-01-12T18:34:20.684Z,7.90
2023-01-12T18:36:49.219Z,7.89
2023-01-12T18:39:22.364Z,7.88
2023-01-12T18:42:10.017Z,7.86
2023-01-12T18:44:39.533Z,7.85
2023-01-12T18:47:25.991Z,7.84
2023-01-12T18:49:58.614Z,7.81
2023-01-12T18:52:45.254Z,7.80
2023-01-12T18:55:13.129Z,7.79
2023-01-12T18:57:40.940Z,7.78
2023-01-12T19:00:19.171Z,7.78
2023-01-12T19:02:48.147Z,7.76
2023-01-12T19:05:46.178Z,7.76
2023-01-12T19:08:32.513Z,7.76
2023-01-12T19:11:11.976Z,7.75
2023-01-12T19:13:58.222Z,7.72
2023-01-12T19:16:44.581Z,7.74
2023-01-12T19:19:12.934Z,7.72
2023-01-12T19:21:59.535Z,7.71
2023-01-12T19:24:45.538Z,7.70
2023-01-12T19:27:32.733Z,7.71
2023-01-12T19:30:00.565Z,7.70
2023-01-12T19:32:28.436Z,7.69
2023-01-12T19:35:02.226Z,7.68
2023-01-12T19:37:33.817Z,7.66
2023-01-12T19:40:10.468Z,7.67
2023-01-12T19:42:56.741Z,7.66
2023-01-12T19:45:24.558Z,7.64
2023-01-12T19:47:53.123Z,7.66
2023-01-12T19:50:21.174Z,7.68
2023-01-12T19:52:48.821Z,7.70
2023-01-12T19:55:16.552Z,7.71
2023-01-12T19:57:44.490Z,7.73
2023-01-12T20:00:16.422Z,7.73
2023-01-12T20:02:45.443Z,7.76
2023-01-12T20:05:18.285Z,7.76
2023-01-12T20:07:46.005Z,7.74
2023-01-12T20:10:13.765Z,7.77
2023-01-12T20:12:41.499Z,7.77
2023-01-12T20:15:09.896Z,7.78
2023-01-12T20:17:37.616Z,7.78
2023-01-12T20:20:09.408Z,7.80
2023-01-12T20:22:37.204Z,7.80
2023-01-12T20:25:06.395Z,7.82
2023-01-12T20:27:35.078Z,7.83
2023-01-12T20:30:03.574Z,7.81
2023-01-12T20:32:32.915Z,7.81
2023-01-12T20:35:04.579Z,7.80
2023-01-12T20:37:34.704Z,7.79
2023-01-12T20:40:03.662Z,7.80
2023-01-12T20:42:32.802Z,7.77
2023-01-12T20:45:01.481Z,7.77
2023-01-12T20:47:32.244Z,7.77
2023-01-12T20:50:00.089Z,7.77
2023-01-12T20:52:28.561Z,7.75
2023-01-12T20:54:56.711Z,7.77
2023-01-12T20:57:24.406Z,7.77
2023-01-12T20:59:52.138Z,7.77
2023-01-12T21:02:24.926Z,7.77
2023-01-12T21:04:53.417Z,7.78
2023-01-12T21:07:21.871Z,7.73
2023-01-12T21:09:49.775Z,7.75
2023-01-12T21:12:17.531Z,7.74
2023-01-12T21:14:45.256Z,7.69
2023-01-12T21:17:12.972Z,7.66
2023-01-12T21:19:40.731Z,7.65
2023-01-12T21:22:08.410Z,7.61
2023-01-12T21:24:36.216Z,7.58
2023-01-12T21:27:03.953Z,7.56
2023-01-12T21:29:31.786Z,7.54
2023-01-12T21:31:59.603Z,7.48
2023-01-12T21:34:27.335Z,7.47
2023-01-12T21:36:54.991Z,7.46
2023-01-12T21:39:22.731Z,7.43
2023-01-12T21:42:08.758Z,7.40
2023-01-12T21:44:36.694Z,7.37
2023-01-12T21:47:04.441Z,7.36
2023-01-12T21:49:32.074Z,7.34
2023-01-12T21:51:59.835Z,7.31
2023-01-12T21:54:27.581Z,7.28
2023-01-12T21:56:55.329Z,7.28
2023-01-12T21:59:23.122Z,7.26
2023-01-12T22:01:50.869Z,7.25
2023-01-12T22:04:18.678Z,7.22
2023-01-12T22:06:46.376Z,7.20
2023-01-12T22:09:14.119Z,7.20
2023-01-12T22:11:41.877Z,7.20
2023-01-12T22:14:09.658Z,7.17
2023-01-12T22:16:37.364Z,7.16
2023-01-12T22:19:05.197Z,7.16
2023-01-12T22:21:32.830Z,7.16
2023-01-12T22:24:00.495Z,7.15
2023-01-12T22:26:30.940Z,7.11
2023-01-12T22:28:58.801Z,7.09
2023-01-12T22:31:26.918Z,7.07
2023-01-12T22:34:03.748Z,7.04
2023-01-12T22:36:34.916Z,7.02
2023-01-12T22:39:02.958Z,7.01
2023-01-12T22:41:31.150Z,6.98
2023-01-12T22:43:58.882Z,7.00
2023-01-12T22:46:28.011Z,7.00
2023-01-12T22:48:57.768Z,7.01
2023-01-12T22:51:27.474Z,7.02
2023-01-12T22:53:56.725Z,7.03
2023-01-12T22:56:24.537Z,7.03
2023-01-12T22:58:54.792Z,7.04
2023-01-12T23:01:24.351Z,7.06
2023-01-12T23:03:59.382Z,7.09
2023-01-12T23:06:27.944Z,7.12
2023-01-12T23:08:55.754Z,7.15
2023-01-12T23:11:26.573Z,7.16
2023-01-12T23:13:58.071Z,7.17
2023-01-12T23:16:27.102Z,7.19
2023-01-12T23:18:56.391Z,7.19
2023-01-12T23:21:27.849Z,7.16
2023-01-12T23:23:58.644Z,7.17
2023-01-12T23:26:29.518Z,7.17
2023-01-12T23:29:01.197Z,7.15
2023-01-12T23:31:31.667Z,7.12
2023-01-12T23:33:59.403Z,7.16
2023-01-12T23:36:29.375Z,7.14
2023-01-12T23:38:59.527Z,7.11
2023-01-12T23:41:29.099Z,7.11
2023-01-12T23:44:00.357Z,7.07
2023-01-12T23:46:30.152Z,7.06
2023-01-12T23:48:58.870Z,7.02
2023-01-12T23:51:28.382Z,6.96
2023-01-12T23:54:00.776Z,6.91
2023-01-12T23:56:33.834Z,6.86
2023-01-12T23:59:01.792Z,6.81
